createdAt,value
2018-07-04T00:00:53.765Z,76.30
2018-07-04T00:03:33.305Z,76.60
2018-07-04T00:06:12.821Z,80.10
2018-07-04T00:08:52.461Z,81.20
2018-07-04T00:11:31.983Z,76.30
2018-07-04T00:14:11.606Z,75.90
2018-07-04T00:16:51.139Z,75.90
2018-07-04T00:19:30.733Z,74.50
2018-07-04T00:22:10.267Z,71.60
2018-07-04T00:24:49.744Z,70.90
2018-07-04T00:27:29.312Z,73.10
2018-07-04T00:30:08.807Z,71.20
2018-07-04T00:32:48.601Z,71.30
2018-07-04T00:35:28.267Z,73.30
2018-07-04T00:38:07.833Z,75.80
2018-07-04T00:40:47.363Z,76.50
2018-07-04T00:43:26.913Z,77.50
2018-07-04T00:46:06.503Z,78.90
2018-07-04T00:48:45.974Z,77.70
2018-07-04T00:51:25.435Z,77.10
2018-07-04T00:54:05.040Z,78.30
2018-07-04T00:56:44.626Z,79.30
2018-07-04T00:59:24.155Z,82.30
2018-07-04T01:02:03.782Z,80.80
2018-07-04T01:04:43.380Z,81.50
2018-07-04T01:07:23.118Z,83.70
2018-07-04T01:10:02.697Z,84.40
2018-07-04T01:12:42.277Z,83.80
2018-07-04T01:15:21.813Z,82.90
2018-07-04T01:18:01.315Z,81.80
2018-07-04T01:20:46.274Z,80.90
2018-07-04T01:23:25.864Z,80.90
2018-07-04T01:26:05.541Z,84.10
2018-07-04T01:28:48.114Z,88.30
2018-07-04T01:31:27.609Z,87.50
2018-07-04T01:34:07.430Z,87.50
2018-07-04T01:36:47.572Z,88.80
2018-07-04T01:39:27.172Z,89.60
2018-07-04T01:42:06.603Z,92.00
2018-07-04T01:44:46.061Z,94.20
2018-07-04T01:47:25.716Z,94.80
2018-07-04T01:50:05.430Z,97.40
2018-07-04T01:52:44.969Z,99.30
2018-07-04T01:55:24.462Z,99.60
2018-07-04T01:58:03.993Z,99.70
2018-07-04T02:00:43.594Z,99.90
2018-07-04T02:03:23.143Z,99.90
2018-07-04T02:06:02.725Z,99.90
2018-07-04T02:08:42.273Z,99.90
2018-07-04T02:11:21.864Z,99.90
2018-07-04T02:14:01.301Z,99.90
2018-07-04T02:16:40.893Z,99.90
2018-07-04T02:19:20.352Z,99.90
2018-07-04T02:22:00.049Z,99.90
2018-07-04T02:24:39.621Z,99.90
2018-07-04T02:27:19.225Z,99.90
2018-07-04T02:29:58.824Z,99.90
2018-07-04T02:32:38.411Z,99.90
2018-07-04T02:35:17.954Z,99.90
2018-07-04T02:37:57.520Z,99.90
2018-07-04T02:40:37.081Z,99.90
2018-07-04T02:43:16.657Z,99.90
2018-07-04T02:45:56.208Z,99.90
2018-07-04T02:48:35.773Z,99.90
2018-07-04T02:51:15.365Z,99.90
2018-07-04T02:53:54.978Z,99.90
2018-07-04T02:56:34.647Z,99.90
2018-07-04T02:59:14.114Z,99.90
2018-07-04T03:01:54.726Z,99.90
2018-07-04T03:04:34.367Z,99.90
2018-07-04T03:07:14.215Z,99.90
2018-07-04T03:09:53.768Z,99.90
2018-07-04T03:12:33.367Z,99.90
2018-07-04T03:15:12.849Z,99.90
2018-07-04T03:17:52.424Z,97.10
2018-07-04T03:20:32.033Z,97.80
2018-07-04T03:23:11.537Z,95.40
2018-07-04T03:25:51.231Z,96.50
2018-07-04T03:28:30.792Z,97.90
2018-07-04T03:31:10.397Z,99.80
2018-07-04T03:33:49.986Z,98.40
2018-07-04T03:36:29.541Z,98.40
2018-07-04T03:39:09.159Z,98.50
2018-07-04T03:41:48.722Z,99.50
2018-07-04T03:44:28.292Z,98.80
2018-07-04T03:47:07.850Z,98.80
2018-07-04T03:49:47.439Z,96.40
2018-07-04T03:52:26.918Z,96.70
2018-07-04T03:55:06.460Z,96.40
2018-07-04T03:57:46.036Z,97.50
2018-07-04T04:00:25.550Z,97.80
2018-07-04T04:03:05.120Z,97.20
2018-07-04T04:05:44.716Z,96.40
2018-07-04T04:08:24.300Z,96.00
2018-07-04T04:11:03.932Z,95.50
2018-07-04T04:13:43.399Z,95.30
2018-07-04T04:16:22.939Z,95.30
2018-07-04T04:19:02.544Z,94.20
2018-07-04T04:21:42.135Z,94.20
2018-07-04T04:24:21.765Z,93.90
2018-07-04T04:27:01.498Z,94.10
2018-07-04T04:29:41.202Z,93.20
2018-07-04T04:32:20.749Z,93.00
2018-07-04T04:35:00.429Z,91.90
2018-07-04T04:37:39.967Z,90.70
2018-07-04T04:40:19.533Z,89.90
2018-07-04T04:42:58.991Z,89.70
2018-07-04T04:45:38.476Z,87.50
2018-07-04T04:48:17.940Z,86.50
2018-07-04T04:50:57.503Z,86.30
2018-07-04T04:53:36.982Z,85.50
2018-07-04T04:56:16.592Z,84.30
2018-07-04T04:58:56.094Z,83.50
2018-07-04T05:01:35.644Z,83.40
2018-07-04T05:04:15.246Z,81.10
2018-07-04T05:06:54.709Z,78.90
2018-07-04T05:09:34.287Z,78.40
2018-07-04T05:12:13.958Z,77.70
2018-07-04T05:14:53.593Z,76.90
2018-07-04T05:17:33.156Z,75.50
2018-07-04T05:20:12.834Z,74.90
2018-07-04T05:22:52.404Z,73.80
2018-07-04T05:25:31.988Z,75.90
2018-07-04T05:28:11.611Z,75.50
2018-07-04T05:30:51.037Z,73.80
2018-07-04T05:33:30.756Z,74.30
2018-07-04T05:36:10.311Z,75.90
2018-07-04T05:38:49.889Z,77.40
2018-07-04T05:41:29.509Z,74.90
2018-07-04T05:44:09.020Z,74.30
2018-07-04T05:46:48.563Z,73.70
2018-07-04T05:49:28.294Z,74.40
2018-07-04T05:52:08.053Z,75.50
2018-07-04T05:54:47.686Z,77.10
2018-07-04T05:57:27.140Z,77.00
2018-07-04T06:00:06.730Z,77.10
2018-07-04T06:02:46.259Z,77.60
2018-07-04T06:05:25.846Z,76.40
2018-07-04T06:08:05.508Z,76.00
2018-07-04T06:10:45.162Z,73.80
2018-07-04T06:13:24.833Z,72.50
2018-07-04T06:16:04.459Z,74.40
2018-07-04T06:18:44.105Z,77.00
2018-07-04T06:21:23.591Z,76.20
2018-07-04T06:24:03.134Z,76.80
2018-07-04T06:26:42.743Z,78.00
2018-07-04T06:29:22.365Z,75.20
2018-07-04T06:32:01.981Z,76.30
2018-07-04T06:34:41.655Z,76.60
2018-07-04T06:37:21.226Z,74.30
2018-07-04T06:39:48.575Z,72.00
2018-07-04T06:42:15.910Z,74.40
2018-07-04T06:44:43.255Z,69.80
2018-07-04T06:47:10.602Z,68.60
2018-07-04T06:49:37.948Z,66.60
2018-07-04T06:52:05.303Z,66.10
2018-07-04T06:54:32.709Z,67.90
2018-07-04T06:57:00.040Z,66.40
2018-07-04T06:59:27.403Z,65.00
2018-07-04T07:02:08.388Z,62.80
2018-07-04T07:04:48.820Z,60.70
2018-07-04T07:07:28.292Z,58.80
2018-07-04T07:10:07.958Z,53.20
2018-07-04T07:12:47.748Z,49.20
2018-07-04T07:15:27.530Z,45.10
2018-07-04T07:18:06.975Z,44.50
2018-07-04T07:20:46.556Z,42.30
2018-07-04T07:23:26.036Z,44.50
2018-07-04T07:26:05.587Z,41.00
2018-07-04T07:28:45.373Z,39.20
2018-07-04T07:31:25.420Z,40.00
2018-07-04T07:34:05.802Z,39.80
2018-07-04T07:36:45.670Z,39.70
2018-07-04T07:39:25.439Z,39.60
2018-07-04T07:42:05.740Z,39.40
2018-07-04T07:44:45.791Z,38.40
2018-07-04T07:47:25.397Z,38.80
2018-07-04T07:50:04.990Z,38.40
2018-07-04T07:52:44.589Z,36.30
2018-07-04T07:55:24.157Z,37.30
2018-07-04T07:58:03.746Z,36.20
2018-07-04T08:00:43.326Z,35.70
2018-07-04T08:03:23.082Z,37.10
2018-07-04T08:06:02.719Z,38.30
2018-07-04T08:08:42.197Z,39.40
2018-07-04T08:11:21.669Z,40.70
2018-07-04T08:14:01.226Z,42.00
2018-07-04T08:16:40.864Z,42.80
2018-07-04T08:19:20.455Z,42.80
2018-07-04T08:22:00.095Z,42.00
2018-07-04T08:24:39.696Z,42.70
2018-07-04T08:27:19.325Z,42.00
2018-07-04T08:29:58.884Z,43.30
2018-07-04T08:32:38.462Z,44.50
2018-07-04T08:35:18.066Z,41.30
2018-07-04T08:37:57.606Z,43.30
2018-07-04T08:40:37.150Z,40.80
2018-07-04T08:43:16.611Z,41.30
2018-07-04T08:45:56.315Z,39.80
2018-07-04T08:48:36.069Z,38.00
2018-07-04T08:51:15.642Z,36.70
2018-07-04T08:53:55.189Z,37.40
2018-07-04T08:56:34.778Z,36.50
2018-07-04T08:59:14.351Z,35.90
2018-07-04T09:01:53.969Z,34.80
2018-07-04T09:04:33.691Z,36.30
2018-07-04T09:07:13.383Z,35.30
2018-07-04T09:09:53.088Z,35.00
2018-07-04T09:12:32.720Z,34.60
2018-07-04T09:15:12.288Z,35.30
2018-07-04T09:17:51.892Z,35.50
2018-07-04T09:20:31.494Z,33.50
2018-07-04T09:23:11.185Z,34.20
2018-07-04T09:25:50.740Z,33.90
2018-07-04T09:28:30.373Z,32.20
2018-07-04T09:31:09.852Z,33.30
2018-07-04T09:33:49.472Z,30.70
2018-07-04T09:36:29.173Z,29.90
2018-07-04T09:39:08.741Z,30.60
2018-07-04T09:41:48.336Z,30.70
2018-07-04T09:44:27.960Z,30.60
2018-07-04T09:47:07.659Z,32.00
2018-07-04T09:49:47.429Z,28.90
2018-07-04T09:52:27.106Z,28.40
2018-07-04T09:55:06.823Z,27.20
2018-07-04T09:57:46.441Z,29.30
2018-07-04T10:00:28.446Z,27.40
2018-07-04T10:03:08.705Z,27.70
2018-07-04T10:05:48.327Z,28.10
2018-07-04T10:08:28.793Z,27.10
2018-07-04T10:11:08.723Z,25.20
2018-07-04T10:13:48.431Z,23.60
2018-07-04T10:16:27.993Z,23.30
2018-07-04T10:19:07.440Z,24.00
2018-07-04T10:21:47.001Z,24.20
2018-07-04T10:24:26.583Z,24.70
2018-07-04T10:27:06.359Z,24.20
2018-07-04T10:29:45.912Z,23.60
2018-07-04T10:32:25.507Z,21.70
2018-07-04T10:35:05.049Z,19.60
2018-07-04T10:37:44.581Z,20.60
2018-07-04T10:40:24.263Z,21.40
2018-07-04T10:43:03.768Z,22.30
2018-07-04T10:45:43.455Z,21.20
2018-07-04T10:48:23.008Z,22.80
2018-07-04T10:51:02.776Z,22.50
2018-07-04T10:53:42.612Z,23.80
2018-07-04T10:56:22.373Z,23.00
2018-07-04T10:59:01.997Z,24.00
2018-07-04T11:01:41.675Z,24.00
2018-07-04T11:04:21.382Z,23.20
2018-07-04T11:07:00.998Z,24.80
2018-07-04T11:09:40.715Z,25.70
2018-07-04T11:12:20.236Z,25.60
2018-07-04T11:14:59.824Z,25.70
2018-07-04T11:17:39.403Z,24.80
2018-07-04T11:20:18.929Z,26.10
2018-07-04T11:22:58.499Z,23.50
2018-07-04T11:25:38.092Z,22.20
2018-07-04T11:28:17.724Z,19.50
2018-07-04T11:30:57.293Z,21.10
2018-07-04T11:33:36.828Z,21.30
2018-07-04T11:36:16.436Z,21.00
2018-07-04T11:38:56.089Z,21.90
2018-07-04T11:41:35.730Z,19.70
2018-07-04T11:44:15.178Z,19.90
2018-07-04T11:46:42.694Z,21.50
2018-07-04T11:49:10.065Z,20.80
2018-07-04T11:51:37.413Z,19.90
2018-07-04T11:54:04.799Z,19.00
2018-07-04T11:56:32.252Z,19.90
2018-07-04T11:58:59.572Z,18.40
2018-07-04T12:01:26.988Z,17.50
2018-07-04T12:04:06.565Z,18.00
2018-07-04T12:06:46.186Z,19.20
2018-07-04T12:09:13.564Z,19.20
2018-07-04T12:11:40.953Z,19.00
2018-07-04T12:14:08.326Z,20.10
2018-07-04T12:16:35.670Z,19.40
2018-07-04T12:19:03.016Z,20.00
2018-07-04T12:21:30.391Z,22.30
2018-07-04T12:23:57.745Z,22.20
2018-07-04T12:26:25.083Z,20.60
2018-07-04T12:28:52.454Z,20.90
2018-07-04T12:31:19.818Z,20.50
2018-07-04T12:33:47.167Z,21.00
2018-07-04T12:36:14.535Z,22.50
2018-07-04T12:38:41.893Z,24.20
2018-07-04T12:41:09.237Z,25.10
2018-07-04T12:43:36.668Z,27.40
2018-07-04T12:46:03.984Z,27.80
2018-07-04T12:48:31.358Z,28.30
2018-07-04T12:50:58.722Z,28.80
2018-07-04T12:53:26.098Z,30.40
2018-07-04T12:56:05.684Z,31.70
2018-07-04T12:58:45.268Z,33.30
2018-07-04T13:01:25.035Z,33.70
2018-07-04T13:04:04.756Z,34.60
2018-07-04T13:06:44.380Z,34.10
2018-07-04T13:09:23.988Z,33.90
2018-07-04T13:12:04.146Z,34.30
2018-07-04T13:14:44.291Z,34.00
2018-07-04T13:17:24.081Z,34.80
2018-07-04T13:20:03.687Z,34.30
2018-07-04T13:22:43.260Z,34.70
2018-07-04T13:25:22.763Z,35.10
2018-07-04T13:28:02.341Z,34.60
2018-07-04T13:30:42.014Z,34.10
2018-07-04T13:33:21.616Z,32.80
2018-07-04T13:36:01.333Z,32.30
2018-07-04T13:38:40.980Z,33.60
2018-07-04T13:41:20.651Z,29.60
2018-07-04T13:44:00.429Z,29.10
2018-07-04T13:46:40.148Z,27.90
2018-07-04T13:49:19.837Z,28.60
2018-07-04T13:51:59.394Z,26.70
2018-07-04T13:54:38.959Z,25.80
2018-07-04T13:57:18.546Z,27.90
2018-07-04T13:59:58.185Z,27.60
2018-07-04T14:02:37.744Z,25.60
2018-07-04T14:05:17.294Z,26.20
2018-07-04T14:07:58.136Z,26.60
2018-07-04T14:10:37.767Z,25.20
2018-07-04T14:13:17.305Z,23.90
2018-07-04T14:15:56.893Z,26.00
2018-07-04T14:18:36.352Z,24.90
2018-07-04T14:21:15.945Z,25.60
2018-07-04T14:23:56.011Z,24.90
2018-07-04T14:26:35.753Z,24.50
2018-07-04T14:29:15.507Z,22.90
2018-07-04T14:31:55.088Z,25.30
2018-07-04T14:34:34.671Z,24.00
2018-07-04T14:37:14.281Z,24.30
2018-07-04T14:39:53.849Z,23.70
2018-07-04T14:42:33.499Z,23.30
2018-07-04T14:45:13.119Z,22.50
2018-07-04T14:47:52.821Z,23.80
2018-07-04T14:50:32.447Z,24.40
2018-07-04T14:53:12.290Z,24.90
2018-07-04T14:55:52.001Z,23.40
2018-07-04T14:58:31.541Z,22.60
2018-07-04T15:01:10.992Z,23.80
2018-07-04T15:03:50.569Z,22.40
2018-07-04T15:06:30.064Z,21.60
2018-07-04T15:09:09.630Z,21.00
2018-07-04T15:11:49.189Z,20.70
2018-07-04T15:14:28.919Z,19.80
2018-07-04T15:17:08.452Z,22.30
2018-07-04T15:19:48.085Z,22.60
2018-07-04T15:22:27.768Z,22.90
2018-07-04T15:25:07.312Z,22.60
2018-07-04T15:27:46.901Z,24.00
2018-07-04T15:30:26.489Z,27.90
2018-07-04T15:33:06.059Z,29.50
2018-07-04T15:35:45.607Z,30.50
2018-07-04T15:38:25.192Z,31.20
2018-07-04T15:41:04.704Z,31.20
2018-07-04T15:43:44.136Z,30.80
2018-07-04T15:46:23.724Z,30.30
2018-07-04T15:49:03.434Z,29.60
2018-07-04T15:51:43.061Z,27.00
2018-07-04T15:54:22.499Z,26.20
2018-07-04T15:57:02.073Z,27.50
2018-07-04T15:59:41.543Z,25.90
2018-07-04T16:02:21.075Z,23.40
2018-07-04T16:05:00.659Z,22.50
2018-07-04T16:07:40.350Z,23.60
2018-07-04T16:10:19.872Z,23.40
2018-07-04T16:12:59.348Z,24.70
2018-07-04T16:15:39.039Z,23.60
2018-07-04T16:18:18.609Z,21.90
2018-07-04T16:20:58.301Z,21.10
2018-07-04T16:23:37.870Z,21.80
2018-07-04T16:26:17.436Z,23.30
2018-07-04T16:28:56.931Z,21.90
2018-07-04T16:31:36.497Z,21.10
2018-07-04T16:34:16.303Z,20.40
2018-07-04T16:36:55.961Z,20.10
2018-07-04T16:39:35.537Z,20.00
2018-07-04T16:42:15.119Z,21.60
2018-07-04T16:44:54.718Z,22.20
2018-07-04T16:47:34.264Z,22.80
2018-07-04T16:50:13.738Z,25.50
2018-07-04T16:52:53.267Z,28.70
2018-07-04T16:55:32.856Z,31.40
2018-07-04T16:58:12.561Z,31.60
2018-07-04T17:00:52.118Z,32.30
2018-07-04T17:03:31.669Z,33.30
2018-07-04T17:06:11.737Z,34.90
2018-07-04T17:08:51.524Z,35.00
2018-07-04T17:11:31.256Z,34.60
2018-07-04T17:14:10.989Z,36.60
2018-07-04T17:16:50.497Z,36.60
2018-07-04T17:19:30.090Z,33.10
2018-07-04T17:22:09.655Z,35.90
2018-07-04T17:24:49.139Z,34.50
2018-07-04T17:27:28.762Z,35.80
2018-07-04T17:30:08.258Z,34.00
2018-07-04T17:32:47.735Z,33.70
2018-07-04T17:35:27.300Z,33.00
2018-07-04T17:38:06.905Z,32.90
2018-07-04T17:40:46.551Z,35.00
2018-07-04T17:43:26.115Z,37.00
2018-07-04T17:46:05.603Z,40.40
2018-07-04T17:48:45.079Z,43.20
2018-07-04T17:51:24.540Z,43.80
2018-07-04T17:54:04.102Z,43.00
2018-07-04T17:56:43.676Z,41.40
2018-07-04T17:59:23.414Z,42.30
2018-07-04T18:02:02.909Z,42.40
2018-07-04T18:04:42.476Z,43.10
2018-07-04T18:07:22.191Z,41.20
2018-07-04T18:10:02.645Z,42.10
2018-07-04T18:12:42.125Z,44.30
2018-07-04T18:15:21.712Z,43.50
2018-07-04T18:18:01.346Z,42.50
2018-07-04T18:20:40.903Z,44.10
2018-07-04T18:23:20.506Z,44.10
2018-07-04T18:26:00.072Z,44.40
2018-07-04T18:28:39.628Z,46.50
2018-07-04T18:31:19.213Z,47.20
2018-07-04T18:33:58.764Z,47.30
2018-07-04T18:36:38.360Z,46.40
2018-07-04T18:39:17.820Z,47.20
2018-07-04T18:41:57.338Z,46.70
2018-07-04T18:44:36.813Z,47.80
2018-07-04T18:47:16.418Z,48.00
2018-07-04T18:49:55.899Z,47.90
2018-07-04T18:52:35.580Z,49.00
2018-07-04T18:55:15.231Z,49.70
2018-07-04T18:57:54.832Z,51.30
2018-07-04T19:00:34.383Z,52.10
2018-07-04T19:03:13.889Z,52.40
2018-07-04T19:05:53.634Z,53.60
2018-07-04T19:08:33.102Z,55.30
2018-07-04T19:11:12.637Z,59.20
2018-07-04T19:13:52.287Z,62.10
2018-07-04T19:16:32.029Z,59.10
2018-07-04T19:19:11.689Z,59.90
2018-07-04T19:21:51.379Z,62.20
2018-07-04T19:24:31.087Z,61.20
2018-07-04T19:27:10.685Z,63.20
2018-07-04T19:29:50.179Z,66.20
2018-07-04T19:32:29.849Z,65.10
2018-07-04T19:35:09.426Z,66.10
2018-07-04T19:37:48.900Z,64.80
2018-07-04T19:40:28.460Z,70.40
2018-07-04T19:43:07.970Z,71.20
2018-07-04T19:45:47.678Z,68.50
2018-07-04T19:48:27.314Z,68.10
2018-07-04T19:51:06.850Z,68.80
2018-07-04T19:53:46.419Z,69.90
2018-07-04T19:56:26.033Z,70.90
2018-07-04T19:59:05.616Z,72.30
2018-07-04T20:01:45.177Z,73.10
2018-07-04T20:04:24.679Z,75.90
2018-07-04T20:07:04.339Z,80.80
2018-07-04T20:09:43.910Z,79.90
2018-07-04T20:12:23.450Z,83.00
2018-07-04T20:15:02.951Z,77.00
2018-07-04T20:17:42.641Z,78.40
2018-07-04T20:20:22.243Z,80.10
2018-07-04T20:23:01.961Z,82.20
2018-07-04T20:25:41.672Z,83.40
2018-07-04T20:28:21.214Z,87.60
2018-07-04T20:31:00.939Z,86.20
2018-07-04T20:33:40.609Z,84.90
2018-07-04T20:36:20.114Z,85.30
2018-07-04T20:38:59.719Z,88.30
2018-07-04T20:41:39.284Z,88.20
2018-07-04T20:44:18.866Z,88.80
2018-07-04T20:46:58.436Z,91.40
2018-07-04T20:49:38.140Z,89.60
2018-07-04T20:52:17.795Z,93.30
2018-07-04T20:54:57.267Z,90.30
2018-07-04T20:57:36.858Z,86.80
2018-07-04T21:00:16.444Z,86.40
2018-07-04T21:02:56.080Z,85.20
2018-07-04T21:05:35.659Z,79.40
2018-07-04T21:08:15.386Z,78.70
2018-07-04T21:10:55.068Z,78.20
2018-07-04T21:13:34.601Z,77.00
2018-07-04T21:16:14.197Z,77.40
2018-07-04T21:18:53.775Z,77.40
2018-07-04T21:21:33.495Z,77.30
2018-07-04T21:24:13.079Z,79.20
2018-07-04T21:26:52.732Z,79.40
2018-07-04T21:29:32.397Z,78.90
2018-07-04T21:32:12.242Z,77.90
2018-07-04T21:34:51.922Z,79.00
2018-07-04T21:37:31.589Z,76.90
2018-07-04T21:40:11.067Z,75.60
2018-07-04T21:42:50.643Z,76.40
2018-07-04T21:45:30.496Z,74.80
2018-07-04T21:48:10.094Z,75.50
2018-07-04T21:50:49.698Z,74.80
2018-07-04T21:53:30.267Z,74.70
2018-07-04T21:56:09.817Z,76.40
2018-07-04T21:58:49.331Z,75.10
2018-07-04T22:01:28.933Z,74.80
2018-07-04T22:04:08.781Z,73.60
2018-07-04T22:06:48.165Z,75.40
2018-07-04T22:09:27.762Z,77.80
2018-07-04T22:12:07.307Z,79.10
2018-07-04T22:14:46.808Z,82.20
2018-07-04T22:17:26.475Z,84.20
2018-07-04T22:20:06.152Z,87.00
2018-07-04T22:22:46.015Z,90.10
2018-07-04T22:25:25.683Z,91.50
2018-07-04T22:28:05.350Z,88.40
2018-07-04T22:30:44.943Z,89.40
2018-07-04T22:33:25.099Z,90.50
2018-07-04T22:36:04.926Z,93.40
2018-07-04T22:38:44.539Z,99.90
2018-07-04T22:41:24.005Z,99.90
2018-07-04T22:44:04.568Z,99.90
2018-07-04T22:46:44.074Z,99.90
2018-07-04T22:49:23.613Z,99.90
2018-07-04T22:52:03.209Z,99.90
2018-07-04T22:54:43.163Z,99.90
2018-07-04T22:57:22.756Z,99.90
2018-07-04T23:00:02.377Z,99.90
2018-07-04T23:02:42.183Z,99.90
2018-07-04T23:05:21.781Z,99.90
2018-07-04T23:08:01.355Z,99.90
2018-07-04T23:10:40.844Z,99.90
2018-07-04T23:13:20.403Z,99.90
2018-07-04T23:16:00.094Z,99.90
2018-07-04T23:18:39.390Z,99.90
2018-07-04T23:21:18.923Z,99.90
2018-07-04T23:23:58.636Z,99.90
2018-07-04T23:26:38.245Z,99.90
2018-07-04T23:29:17.780Z,99.90
2018-07-04T23:31:57.326Z,99.90
2018-07-04T23:34:36.982Z,99.90
2018-07-04T23:37:16.575Z,99.90
2018-07-04T23:39:56.054Z,99.90
2018-07-04T23:42:35.584Z,99.90
2018-07-04T23:45:15.133Z,99.90
2018-07-04T23:47:54.555Z,99.90
2018-07-04T23:50:34.141Z,99.90
2018-07-04T23:53:13.613Z,99.90
2018-07-04T23:55:53.290Z,99.90
2018-07-04T23:58:32.844Z,99.90
